createdAt,value
2022-12-06T00:00:11.654Z,101282.19
2022-12-06T00:02:41.397Z,101284.41
2022-12-06T00:05:11.161Z,101278.34
2022-12-06T00:07:41.337Z,101275.06
2022-12-06T00:10:11.435Z,101283.69
2022-12-06T00:12:41.159Z,101273.13
2022-12-06T00:15:11.145Z,101278.63
2022-12-06T00:17:43.153Z,101284.19
2022-12-06T00:20:13.612Z,101291.94
2022-12-06T00:22:52.179Z,101276.41
2022-12-06T00:25:21.910Z,101293.28
2022-12-06T00:27:52.454Z,101286.50
2022-12-06T00:30:22.346Z,101287.47
2022-12-06T00:32:52.063Z,101282.38
2022-12-06T00:35:21.728Z,101283.41
2022-12-06T00:37:51.384Z,101297.09
2022-12-06T00:40:21.086Z,101286.13
2022-12-06T00:42:50.812Z,101285.00
2022-12-06T00:45:20.501Z,101281.19
2022-12-06T00:47:50.210Z,101281.28
2022-12-06T00:50:20.027Z,101288.44
2022-12-06T00:52:49.732Z,101294.59
2022-12-06T00:55:19.668Z,101287.72
2022-12-06T00:57:49.981Z,101288.34
2022-12-06T01:00:20.007Z,101289.31
2022-12-06T01:02:49.764Z,101282.22
2022-12-06T01:05:19.686Z,101283.94
2022-12-06T01:07:49.467Z,101288.72
2022-12-06T01:10:19.419Z,101276.13
2022-12-06T01:12:49.047Z,101272.50
2022-12-06T01:15:19.129Z,101285.13
2022-12-06T01:17:48.648Z,101278.69
2022-12-06T01:20:18.296Z,101279.19
2022-12-06T01:22:48.003Z,101277.84
2022-12-06T01:25:17.799Z,101276.78
2022-12-06T01:27:47.403Z,101276.03
2022-12-06T01:30:17.248Z,101271.09
2022-12-06T01:32:46.862Z,101267.31
2022-12-06T01:35:16.601Z,101281.88
2022-12-06T01:37:46.209Z,101287.38
2022-12-06T01:40:16.247Z,101284.41
2022-12-06T01:42:45.916Z,101275.69
2022-12-06T01:45:15.835Z,101271.56
2022-12-06T01:47:46.264Z,101270.06
2022-12-06T01:50:22.318Z,101277.72
2022-12-06T01:53:01.015Z,101271.47
2022-12-06T01:55:34.960Z,101267.84
2022-12-06T01:58:13.251Z,101262.38
2022-12-06T02:00:43.216Z,101263.63
2022-12-06T02:03:19.757Z,101267.34
2022-12-06T02:05:50.257Z,101263.69
2022-12-06T02:08:22.060Z,101261.38
2022-12-06T02:10:51.728Z,101261.38
2022-12-06T02:13:24.236Z,101254.69
2022-12-06T02:16:18.107Z,101260.94
2022-12-06T02:19:08.834Z,101245.47
2022-12-06T02:21:53.679Z,101246.34
2022-12-06T02:24:38.490Z,101248.97
2022-12-06T02:27:23.678Z,101254.00
2022-12-06T02:30:09.577Z,101249.25
2022-12-06T02:32:58.699Z,101251.16
2022-12-06T02:35:43.740Z,101245.94
2022-12-06T02:38:35.828Z,101248.19
2022-12-06T02:41:31.377Z,101250.75
2022-12-06T02:44:14.734Z,101238.03
2022-12-06T02:46:45.299Z,101242.25
2022-12-06T02:49:17.165Z,101233.03
2022-12-06T02:51:49.603Z,101235.75
2022-12-06T02:54:20.300Z,101228.31
2022-12-06T02:56:49.878Z,101219.75
2022-12-06T02:59:19.522Z,101220.47
2022-12-06T03:01:55.418Z,101217.91
2022-12-06T03:04:58.406Z,101214.50
2022-12-06T03:07:42.073Z,101213.28
2022-12-06T03:10:22.451Z,101210.38
2022-12-06T03:13:36.731Z,101196.44
2022-12-06T03:16:50.537Z,101201.78
2022-12-06T03:19:29.130Z,101195.88
2022-12-06T03:22:22.288Z,101192.94
2022-12-06T03:24:53.254Z,101189.72
2022-12-06T03:27:24.570Z,101181.25
2022-12-06T03:29:59.457Z,101183.38
2022-12-06T03:32:34.407Z,101179.97
2022-12-06T03:35:10.358Z,101181.00
2022-12-06T03:37:45.682Z,101165.78
2022-12-06T03:40:28.669Z,101161.81
2022-12-06T03:42:59.963Z,101157.03
2022-12-06T03:46:01.577Z,101156.78
2022-12-06T03:48:55.888Z,101152.28
2022-12-06T03:51:30.858Z,101148.38
2022-12-06T03:54:03.580Z,101148.66
2022-12-06T03:56:38.292Z,101136.66
2022-12-06T03:59:09.733Z,101143.16
2022-12-06T04:01:41.044Z,101138.97
2022-12-06T04:04:12.369Z,101136.56
2022-12-06T04:06:42.013Z,101131.88
2022-12-06T04:09:29.629Z,101132.31
2022-12-06T04:11:59.226Z,101128.09
2022-12-06T04:14:33.926Z,101125.69
2022-12-06T04:17:21.275Z,101132.59
2022-12-06T04:19:52.223Z,101128.94
2022-12-06T04:22:40.159Z,101128.22
2022-12-06T04:25:10.040Z,101121.59
2022-12-06T04:27:57.437Z,101112.47
2022-12-06T04:30:45.409Z,101115.16
2022-12-06T04:33:33.442Z,101112.88
2022-12-06T04:36:20.831Z,101117.28
2022-12-06T04:38:50.389Z,101113.91
2022-12-06T04:41:38.005Z,101110.94
2022-12-06T04:44:08.068Z,101108.41
2022-12-06T04:46:37.847Z,101119.09
2022-12-06T04:49:07.423Z,101119.75
2022-12-06T04:51:37.060Z,101117.09
2022-12-06T04:54:07.180Z,101123.84
2022-12-06T04:56:37.282Z,101127.91
2022-12-06T04:59:07.110Z,101120.84
2022-12-06T05:01:36.649Z,101110.41
2022-12-06T05:04:06.492Z,101106.56
2022-12-06T05:06:36.135Z,101110.63
2022-12-06T05:09:06.458Z,101109.81
2022-12-06T05:11:36.132Z,101105.28
2022-12-06T05:14:05.754Z,101106.13
2022-12-06T05:16:35.489Z,101109.91
2022-12-06T05:19:05.390Z,101115.97
2022-12-06T05:21:34.906Z,101103.59
2022-12-06T05:24:04.528Z,101106.66
2022-12-06T05:26:34.182Z,101092.97
2022-12-06T05:29:03.818Z,101095.66
2022-12-06T05:31:33.581Z,101084.44
2022-12-06T05:34:03.254Z,101095.25
2022-12-06T05:36:32.841Z,101089.22
2022-12-06T05:39:02.397Z,101081.63
2022-12-06T05:41:31.973Z,101077.44
2022-12-06T05:44:01.566Z,101071.34
2022-12-06T05:46:31.221Z,101069.81
2022-12-06T05:49:00.765Z,101079.94
2022-12-06T05:51:30.385Z,101075.16
2022-12-06T05:54:00.062Z,101067.59
2022-12-06T05:56:29.676Z,101077.72
2022-12-06T05:58:59.222Z,101075.34
2022-12-06T06:01:28.764Z,101076.63
2022-12-06T06:03:58.254Z,101084.44
2022-12-06T06:06:27.822Z,101079.97
2022-12-06T06:08:57.429Z,101077.41
2022-12-06T06:11:26.982Z,101075.44
2022-12-06T06:13:56.490Z,101078.31
2022-12-06T06:16:26.132Z,101071.00
2022-12-06T06:18:55.651Z,101069.97
2022-12-06T06:21:25.177Z,101057.94
2022-12-06T06:23:54.776Z,101063.00
2022-12-06T06:26:24.391Z,101070.84
2022-12-06T06:28:53.973Z,101071.84
2022-12-06T06:31:23.681Z,101065.25
2022-12-06T06:33:53.292Z,101054.44
2022-12-06T06:36:22.800Z,101063.78
2022-12-06T06:38:52.340Z,101061.97
2022-12-06T06:41:21.913Z,101074.34
2022-12-06T06:43:51.514Z,101077.53
2022-12-06T06:46:21.299Z,101076.91
2022-12-06T06:48:50.899Z,101080.88
2022-12-06T06:51:20.449Z,101071.00
2022-12-06T06:53:50.179Z,101068.59
2022-12-06T06:56:21.695Z,101073.81
2022-12-06T06:58:51.482Z,101080.31
2022-12-06T07:01:23.897Z,101074.31
2022-12-06T07:03:53.876Z,101074.88
2022-12-06T07:06:23.554Z,101077.53
2022-12-06T07:08:53.216Z,101069.63
2022-12-06T07:11:22.834Z,101073.25
2022-12-06T07:13:52.891Z,101082.66
2022-12-06T07:16:22.896Z,101078.56
2022-12-06T07:18:53.052Z,101082.50
2022-12-06T07:21:25.025Z,101084.59
2022-12-06T07:23:54.556Z,101092.72
2022-12-06T07:26:25.829Z,101083.88
2022-12-06T07:28:55.350Z,101085.44
2022-12-06T07:31:27.861Z,101088.22
2022-12-06T07:34:02.260Z,101090.19
2022-12-06T07:36:33.783Z,101091.13
2022-12-06T07:39:03.489Z,101089.44
2022-12-06T07:41:56.211Z,101079.91
2022-12-06T07:44:43.808Z,101084.25
2022-12-06T07:47:13.379Z,101084.22
2022-12-06T07:49:42.931Z,101092.22
2022-12-06T07:52:12.456Z,101087.47
2022-12-06T07:54:43.023Z,101093.06
2022-12-06T07:57:12.579Z,101094.53
2022-12-06T07:59:42.110Z,101084.34
2022-12-06T08:02:23.248Z,101086.63
2022-12-06T08:04:52.908Z,101088.13
2022-12-06T08:07:25.589Z,101089.81
2022-12-06T08:09:55.928Z,101088.63
2022-12-06T08:12:25.943Z,101090.13
2022-12-06T08:14:59.508Z,101084.06
2022-12-06T08:17:30.066Z,101076.84
2022-12-06T08:19:59.945Z,101070.09
2022-12-06T08:22:30.519Z,101073.66
2022-12-06T08:25:00.034Z,101073.25
2022-12-06T08:27:29.575Z,101065.00
2022-12-06T08:29:59.419Z,101064.19
2022-12-06T08:32:29.142Z,101068.22
2022-12-06T08:34:58.669Z,101085.81
2022-12-06T08:37:28.267Z,101085.69
2022-12-06T08:39:58.073Z,101081.81
2022-12-06T08:42:27.935Z,101078.78
2022-12-06T08:44:57.751Z,101086.69
2022-12-06T08:47:27.253Z,101086.31
2022-12-06T08:49:56.839Z,101083.78
2022-12-06T08:52:26.562Z,101076.25
2022-12-06T08:54:56.094Z,101078.28
2022-12-06T08:57:25.645Z,101076.13
2022-12-06T08:59:55.390Z,101077.84
2022-12-06T09:02:24.950Z,101082.28
2022-12-06T09:04:54.990Z,101077.06
2022-12-06T09:07:25.082Z,101085.56
2022-12-06T09:09:57.408Z,101077.19
2022-12-06T09:12:27.930Z,101087.00
2022-12-06T09:14:57.444Z,101083.84
2022-12-06T09:17:27.012Z,101091.38
2022-12-06T09:19:58.551Z,101081.53
2022-12-06T09:22:31.715Z,101090.63
2022-12-06T09:25:01.245Z,101089.66
2022-12-06T09:27:33.298Z,101105.03
2022-12-06T09:30:03.058Z,101098.00
2022-12-06T09:32:32.863Z,101089.41
2022-12-06T09:35:02.895Z,101094.59
2022-12-06T09:37:33.932Z,101083.09
2022-12-06T09:40:13.344Z,101085.41
2022-12-06T09:42:45.570Z,101088.06
2022-12-06T09:45:37.251Z,101083.06
2022-12-06T09:48:36.245Z,101082.47
2022-12-06T09:51:08.475Z,101090.44
2022-12-06T09:53:49.998Z,101088.16
2022-12-06T09:56:33.706Z,101078.34
2022-12-06T09:59:03.268Z,101075.09
2022-12-06T10:02:13.192Z,101085.97
2022-12-06T10:05:00.756Z,101083.59
2022-12-06T10:07:35.255Z,101094.13
2022-12-06T10:10:23.232Z,101096.91
2022-12-06T10:13:11.300Z,101097.50
2022-12-06T10:16:11.285Z,101103.69
2022-12-06T10:19:00.548Z,101099.97
2022-12-06T10:21:40.062Z,101110.19
2022-12-06T10:24:50.220Z,101107.66
2022-12-06T10:27:35.614Z,101101.72
2022-12-06T10:30:15.632Z,101098.34
2022-12-06T10:32:48.094Z,101106.81
2022-12-06T10:35:51.293Z,101106.44
2022-12-06T10:38:55.095Z,101102.53
2022-12-06T10:42:06.396Z,101091.25
2022-12-06T10:44:57.393Z,101090.78
2022-12-06T10:47:36.986Z,101097.28
2022-12-06T10:50:28.519Z,101093.03
2022-12-06T10:53:14.070Z,101099.44
2022-12-06T10:55:47.863Z,101096.00
2022-12-06T10:58:40.708Z,101091.78
2022-12-06T11:01:23.918Z,101101.81
2022-12-06T11:04:04.775Z,101104.69
2022-12-06T11:06:36.988Z,101109.28
2022-12-06T11:09:18.844Z,101106.88
2022-12-06T11:11:51.019Z,101106.97
2022-12-06T11:14:26.667Z,101113.34
2022-12-06T11:17:27.307Z,101118.09
2022-12-06T11:20:03.165Z,101113.81
2022-12-06T11:23:07.472Z,101108.13
2022-12-06T11:26:22.453Z,101110.78
2022-12-06T11:29:06.662Z,101098.75
2022-12-06T11:31:57.407Z,101105.03
2022-12-06T11:34:38.969Z,101102.69
2022-12-06T11:37:09.548Z,101094.88
2022-12-06T11:39:39.156Z,101099.22
2022-12-06T11:42:10.674Z,101091.34
2022-12-06T11:45:05.074Z,101085.28
2022-12-06T11:47:35.025Z,101089.97
2022-12-06T11:50:09.331Z,101093.50
2022-12-06T11:53:22.000Z,101108.59
2022-12-06T11:55:59.617Z,101106.03
2022-12-06T11:58:39.388Z,101102.00
2022-12-06T12:01:15.834Z,101110.88
2022-12-06T12:03:47.335Z,101106.38
2022-12-06T12:06:23.111Z,101104.81
2022-12-06T12:09:07.478Z,101101.06
2022-12-06T12:11:43.653Z,101099.59
2022-12-06T12:14:27.439Z,101103.09
2022-12-06T12:17:04.334Z,101098.72
2022-12-06T12:19:43.268Z,101106.09
2022-12-06T12:22:44.687Z,101098.34
2022-12-06T12:25:43.853Z,101106.41
2022-12-06T12:28:37.098Z,101104.69
2022-12-06T12:31:28.114Z,101104.94
2022-12-06T12:34:28.043Z,101100.66
2022-12-06T12:37:06.841Z,101110.44
2022-12-06T12:39:46.714Z,101099.91
2022-12-06T12:42:34.695Z,101098.22
2022-12-06T12:45:07.604Z,101100.16
2022-12-06T12:47:38.112Z,101100.25
2022-12-06T12:50:21.798Z,101098.44
2022-12-06T12:52:52.148Z,101101.94
2022-12-06T12:55:26.292Z,101097.59
2022-12-06T12:58:01.944Z,101102.38
2022-12-06T13:00:39.434Z,101096.22
2022-12-06T13:03:49.554Z,101089.19
2022-12-06T13:06:18.180Z,101091.84
2022-12-06T13:08:48.210Z,101098.25
2022-12-06T13:11:18.443Z,101087.72
2022-12-06T13:13:52.172Z,101096.53
2022-12-06T13:16:34.442Z,101093.16
2022-12-06T13:19:04.878Z,101087.94
2022-12-06T13:21:41.563Z,101087.09
2022-12-06T13:24:14.145Z,101088.03
2022-12-06T13:26:59.883Z,101086.47
2022-12-06T13:29:38.284Z,101089.75
2022-12-06T13:32:30.583Z,101086.47
2022-12-06T13:35:05.024Z,101085.72
2022-12-06T13:37:44.810Z,101087.44
2022-12-06T13:40:37.350Z,101089.22
2022-12-06T13:43:29.822Z,101092.75
2022-12-06T13:46:12.348Z,101101.66
2022-12-06T13:48:41.919Z,101100.81
2022-12-06T13:51:37.092Z,101102.63
2022-12-06T13:54:06.709Z,101102.94
2022-12-06T13:56:36.184Z,101102.84
2022-12-06T13:59:28.792Z,101095.81
2022-12-06T14:02:00.127Z,101105.50
2022-12-06T14:07:04.252Z,101102.84
2022-12-06T14:09:45.746Z,101107.28
2022-12-06T14:12:25.571Z,101107.53
2022-12-06T14:14:58.667Z,101104.88
2022-12-06T14:18:00.663Z,101110.28
2022-12-06T14:20:31.833Z,101101.47
2022-12-06T14:23:01.506Z,101097.09
2022-12-06T14:25:32.931Z,101097.09
2022-12-06T14:28:15.296Z,101097.09
2022-12-06T14:30:45.944Z,101103.50
2022-12-06T14:33:25.245Z,101098.28
2022-12-06T14:35:56.313Z,101092.13
2022-12-06T14:38:33.337Z,101095.72
2022-12-06T14:41:20.968Z,101087.75
2022-12-06T14:43:51.230Z,101096.06
2022-12-06T14:46:24.219Z,101095.94
2022-12-06T14:49:11.988Z,101099.66
2022-12-06T14:51:42.548Z,101098.09
2022-12-06T14:54:36.523Z,101096.16
2022-12-06T14:57:06.710Z,101099.75
2022-12-06T15:00:13.385Z,101098.09
2022-12-06T15:02:30.109Z,101092.88
2022-12-06T15:05:00.369Z,101099.88
2022-12-06T15:07:44.763Z,101105.31
2022-12-06T15:10:27.047Z,101104.34
2022-12-06T15:12:57.044Z,101102.66
2022-12-06T15:15:42.666Z,101102.13
2022-12-06T15:18:24.261Z,101094.78
2022-12-06T15:20:55.553Z,101099.38
2022-12-06T15:23:42.511Z,101098.72
2022-12-06T15:26:15.245Z,101099.56
2022-12-06T15:28:45.318Z,101105.81
2022-12-06T15:31:28.851Z,101100.63
2022-12-06T15:33:59.123Z,101100.41
2022-12-06T15:36:32.523Z,101096.06
2022-12-06T15:39:02.174Z,101095.31
2022-12-06T15:41:32.028Z,101084.69
2022-12-06T15:44:01.601Z,101087.56
2022-12-06T15:46:34.178Z,101078.75
2022-12-06T15:49:03.729Z,101085.84
2022-12-06T15:51:33.278Z,101084.91
2022-12-06T15:54:04.448Z,101085.09
2022-12-06T15:56:34.068Z,101086.06
2022-12-06T15:59:03.669Z,101082.34
2022-12-06T16:01:44.743Z,101071.81
2022-12-06T16:04:23.141Z,101071.94
2022-12-06T16:06:53.200Z,101067.59
2022-12-06T16:09:23.118Z,101065.88
2022-12-06T16:11:52.742Z,101077.38
2022-12-06T16:14:22.838Z,101070.69
2022-12-06T16:16:52.411Z,101066.31
2022-12-06T16:19:22.049Z,101075.00
2022-12-06T16:21:57.840Z,101066.22
2022-12-06T16:24:27.583Z,101061.75
2022-12-06T16:26:57.100Z,101056.53
2022-12-06T16:29:26.644Z,101052.28
2022-12-06T16:31:56.253Z,101052.41
2022-12-06T16:34:26.641Z,101054.22
2022-12-06T16:37:07.967Z,101051.63
2022-12-06T16:39:37.784Z,101054.38
2022-12-06T16:42:07.813Z,101057.03
2022-12-06T16:44:52.303Z,101074.53
2022-12-06T16:49:51.794Z,101066.72
2022-12-06T16:52:21.372Z,101070.88
2022-12-06T16:54:50.928Z,101074.47
2022-12-06T16:57:22.087Z,101079.78
2022-12-06T16:59:51.912Z,101071.81
2022-12-06T17:02:32.948Z,101069.91
2022-12-06T17:05:07.467Z,101069.91
2022-12-06T17:07:38.292Z,101074.47
2022-12-06T17:10:08.915Z,101066.41
2022-12-06T17:12:38.468Z,101075.44
2022-12-06T17:15:09.629Z,101071.81
2022-12-06T17:17:39.217Z,101071.03
2022-12-06T17:20:10.084Z,101068.41
2022-12-06T17:22:41.555Z,101077.19
2022-12-06T17:25:13.305Z,101071.03
2022-12-06T17:27:42.895Z,101081.66
2022-12-06T17:30:21.504Z,101079.34
2022-12-06T17:32:51.036Z,101082.84
2022-12-06T17:35:20.573Z,101086.34
2022-12-06T17:37:50.503Z,101082.63
2022-12-06T17:40:20.139Z,101084.56
2022-12-06T17:43:01.789Z,101079.44
2022-12-06T17:45:31.478Z,101082.28
2022-12-06T17:48:01.136Z,101061.81
2022-12-06T17:50:30.787Z,101074.13
2022-12-06T17:53:00.317Z,101082.28
2022-12-06T17:55:29.888Z,101076.16
2022-12-06T17:57:59.462Z,101074.66
2022-12-06T18:00:29.109Z,101074.56
2022-12-06T18:02:58.813Z,101082.41
2022-12-06T18:05:28.627Z,101074.66
2022-12-06T18:07:58.240Z,101073.69
2022-12-06T18:10:27.789Z,101077.31
2022-12-06T18:13:01.265Z,101078.25
2022-12-06T18:15:42.323Z,101082.81
2022-12-06T18:18:11.963Z,101076.56
2022-12-06T18:20:42.640Z,101074.22
2022-12-06T18:23:12.653Z,101071.38
2022-12-06T18:25:45.456Z,101077.50
2022-12-06T18:28:15.287Z,101067.97
2022-12-06T18:30:44.892Z,101063.78
2022-12-06T18:33:19.178Z,101066.56
2022-12-06T18:35:53.824Z,101060.09
2022-12-06T18:38:23.461Z,101050.44
2022-12-06T18:40:53.020Z,101061.13
2022-12-06T18:43:22.682Z,101052.34
2022-12-06T18:46:03.228Z,101060.31
2022-12-06T18:48:33.542Z,101056.72
2022-12-06T18:51:08.009Z,101065.72
2022-12-06T18:53:38.500Z,101062.22
2022-12-06T18:56:14.529Z,101066.69
2022-12-06T18:58:44.676Z,101069.34
2022-12-06T19:01:32.220Z,101060.53
2022-12-06T19:04:04.642Z,101056.25
2022-12-06T19:06:39.664Z,101052.88
2022-12-06T19:09:12.293Z,101043.19
2022-12-06T19:11:43.826Z,101060.81
2022-12-06T19:14:13.365Z,101052.88
2022-12-06T19:16:44.389Z,101054.56
2022-12-06T19:19:17.216Z,101055.63
2022-12-06T19:21:48.418Z,101053.81
2022-12-06T19:24:29.259Z,101049.28
2022-12-06T19:27:02.283Z,101044.06
2022-12-06T19:29:31.845Z,101046.91
2022-12-06T19:32:01.857Z,101048.50
2022-12-06T19:34:31.801Z,101048.50
2022-12-06T19:37:01.539Z,101048.63
2022-12-06T19:39:31.121Z,101053.06
2022-12-06T19:42:18.799Z,101050.41
2022-12-06T19:44:48.323Z,101054.88
2022-12-06T19:47:17.943Z,101049.66
2022-12-06T19:49:47.625Z,101050.72
2022-12-06T19:52:17.268Z,101047.88
2022-12-06T19:54:46.901Z,101048.63
2022-12-06T19:57:17.077Z,101046.72
2022-12-06T19:59:46.647Z,101042.66
2022-12-06T20:02:16.288Z,101044.44
2022-12-06T20:04:47.643Z,101051.47
2022-12-06T20:07:17.205Z,101052.53
2022-12-06T20:09:46.808Z,101050.72
2022-12-06T20:12:16.426Z,101048.06
2022-12-06T20:14:48.756Z,101049.88
2022-12-06T20:17:23.651Z,101049.66
2022-12-06T20:19:53.398Z,101053.19
2022-12-06T20:22:24.230Z,101052.63
2022-12-06T20:24:53.725Z,101053.38
2022-12-06T20:27:43.100Z,101051.56
2022-12-06T20:30:13.228Z,101059.63
2022-12-06T20:32:43.402Z,101055.19
2022-12-06T20:35:12.948Z,101060.59
2022-12-06T20:37:42.545Z,101058.03
2022-12-06T20:40:12.655Z,101065.91
2022-12-06T20:42:42.251Z,101064.19
2022-12-06T20:45:11.925Z,101066.00
2022-12-06T20:47:41.553Z,101069.72
2022-12-06T20:50:11.557Z,101075.03
2022-12-06T20:52:41.128Z,101073.41
2022-12-06T20:55:11.296Z,101064.00
2022-12-06T20:57:40.856Z,101071.59
2022-12-06T21:00:13.004Z,101068.75
2022-12-06T21:02:42.884Z,101080.72
2022-12-06T21:05:12.544Z,101074.81
2022-12-06T21:07:42.145Z,101073.84
2022-12-06T21:10:12.347Z,101071.03
2022-12-06T21:12:41.925Z,101077.03
2022-12-06T21:15:11.905Z,101080.94
2022-12-06T21:17:41.561Z,101077.06
2022-12-06T21:20:11.406Z,101095.25
2022-12-06T21:22:40.980Z,101094.50
2022-12-06T21:25:11.000Z,101090.34
2022-12-06T21:27:40.475Z,101089.84
2022-12-06T21:30:10.690Z,101087.34
2022-12-06T21:32:40.212Z,101084.34
2022-12-06T21:35:10.055Z,101088.50
2022-12-06T21:37:39.636Z,101095.66
2022-12-06T21:40:09.875Z,101093.34
2022-12-06T21:42:40.229Z,101099.28
2022-12-06T21:45:10.206Z,101103.50
2022-12-06T21:47:39.726Z,101103.28
2022-12-06T21:50:10.290Z,101097.22
2022-12-06T21:52:40.406Z,101096.13
2022-12-06T21:55:10.254Z,101101.16
2022-12-06T21:57:39.878Z,101105.84
2022-12-06T22:00:10.221Z,101105.66
2022-12-06T22:02:39.907Z,101113.63
2022-12-06T22:05:09.908Z,101109.09
2022-12-06T22:07:39.575Z,101113.44
2022-12-06T22:10:09.925Z,101119.38
2022-12-06T22:12:39.480Z,101124.09
2022-12-06T22:15:09.611Z,101133.63
2022-12-06T22:17:39.716Z,101131.09
2022-12-06T22:20:09.930Z,101130.69
2022-12-06T22:22:39.493Z,101149.66
2022-12-06T22:25:12.615Z,101146.13
2022-12-06T22:27:44.588Z,101150.88
2022-12-06T22:30:14.396Z,101155.72
2022-12-06T22:32:43.976Z,101153.63
2022-12-06T22:35:13.605Z,101164.75
2022-12-06T22:37:43.517Z,101166.69
2022-12-06T22:40:13.679Z,101174.09
2022-12-06T22:42:43.239Z,101176.16
2022-12-06T22:45:13.191Z,101185.84
2022-12-06T22:47:42.743Z,101189.00
2022-12-06T22:50:12.374Z,101196.88
2022-12-06T22:52:41.889Z,101200.88
2022-12-06T22:55:11.526Z,101203.78
2022-12-06T22:57:41.049Z,101208.53
2022-12-06T23:00:11.107Z,101204.38
2022-12-06T23:02:40.639Z,101211.72
2022-12-06T23:05:10.524Z,101212.00
2022-12-06T23:07:40.187Z,101211.88
2022-12-06T23:10:10.500Z,101209.59
2022-12-06T23:12:41.615Z,101210.81
2022-12-06T23:15:11.439Z,101211.97
2022-12-06T23:17:41.113Z,101222.94
2022-12-06T23:20:11.145Z,101210.78
2022-12-06T23:22:40.995Z,101211.59
2022-12-06T23:25:10.892Z,101213.78
2022-12-06T23:27:40.482Z,101222.25
2022-12-06T23:30:10.902Z,101219.81
2022-12-06T23:32:40.489Z,101217.84
2022-12-06T23:35:10.542Z,101217.25
2022-12-06T23:37:40.118Z,101214.66
2022-12-06T23:40:10.472Z,101215.97
2022-12-06T23:42:40.082Z,101208.44
2022-12-06T23:45:10.207Z,101207.09
2022-12-06T23:47:39.788Z,101208.69
2022-12-06T23:50:10.017Z,101203.78
2022-12-06T23:52:39.619Z,101214.81
2022-12-06T23:55:09.438Z,101218.44
2022-12-06T23:57:38.985Z,101222.25
